createdAt,value
2023-03-24T00:01:19.032Z,100.00
2023-03-24T00:03:48.761Z,100.00
2023-03-24T00:06:19.065Z,100.00
2023-03-24T00:08:48.671Z,100.00
2023-03-24T00:11:18.785Z,100.00
2023-03-24T00:13:50.376Z,100.00
2023-03-24T00:16:19.804Z,100.00
2023-03-24T00:18:50.459Z,100.00
2023-03-24T00:21:18.447Z,100.00
2023-03-24T00:23:47.751Z,100.00
2023-03-24T00:26:18.301Z,100.00
2023-03-24T00:28:49.292Z,100.00
2023-03-24T00:31:18.585Z,100.00
2023-03-24T00:33:50.541Z,100.00
2023-03-24T00:36:20.629Z,100.00
2023-03-24T00:38:50.137Z,100.00
2023-03-24T00:41:20.351Z,100.00
2023-03-24T00:43:49.134Z,100.00
2023-03-24T00:46:27.852Z,100.00
2023-03-24T00:49:02.094Z,100.00
2023-03-24T00:51:31.934Z,100.00
2023-03-24T00:53:59.969Z,100.00
2023-03-24T00:56:31.293Z,100.00
2023-03-24T00:59:02.403Z,100.00
2023-03-24T01:01:35.400Z,100.00
2023-03-24T01:04:06.047Z,100.00
2023-03-24T01:06:36.681Z,100.00
2023-03-24T01:09:06.221Z,100.00
2023-03-24T01:11:41.304Z,100.00
2023-03-24T01:14:09.948Z,100.00
2023-03-24T01:16:38.521Z,100.00
2023-03-24T01:19:09.192Z,100.00
2023-03-24T01:21:37.976Z,100.00
2023-03-24T01:24:06.902Z,100.00
2023-03-24T01:26:36.321Z,100.00
2023-03-24T01:29:04.494Z,100.00
2023-03-24T01:31:32.494Z,100.00
2023-03-24T01:34:00.473Z,100.00
2023-03-24T01:36:28.425Z,100.00
2023-03-24T01:38:58.484Z,100.00
2023-03-24T01:41:28.361Z,100.00
2023-03-24T01:43:57.728Z,100.00
2023-03-24T01:46:26.645Z,100.00
2023-03-24T01:48:56.395Z,100.00
2023-03-24T01:51:26.557Z,100.00
2023-03-24T01:53:57.502Z,100.00
2023-03-24T01:56:26.263Z,100.00
2023-03-24T01:58:59.236Z,100.00
2023-03-24T02:01:29.881Z,100.00
2023-03-24T02:03:59.054Z,100.00
2023-03-24T02:06:27.274Z,100.00
2023-03-24T02:08:56.805Z,100.00
2023-03-24T02:11:27.029Z,100.00
2023-03-24T02:13:55.259Z,100.00
2023-03-24T02:16:39.486Z,100.00
2023-03-24T02:19:39.133Z,100.00
2023-03-24T02:22:42.903Z,100.00
2023-03-24T02:25:30.254Z,100.00
2023-03-24T02:28:13.060Z,100.00
2023-03-24T02:30:59.455Z,100.00
2023-03-24T02:33:53.100Z,100.00
2023-03-24T02:36:50.680Z,100.00
2023-03-24T02:39:40.799Z,100.00
2023-03-24T02:42:16.102Z,100.00
2023-03-24T02:44:49.957Z,100.00
2023-03-24T02:47:21.535Z,100.00
2023-03-24T02:49:57.017Z,100.00
2023-03-24T02:52:30.005Z,100.00
2023-03-24T02:55:02.443Z,100.00
2023-03-24T02:57:33.840Z,100.00
2023-03-24T03:00:07.774Z,100.00
2023-03-24T03:02:37.270Z,100.00
2023-03-24T03:05:09.547Z,100.00
2023-03-24T03:07:38.540Z,100.00
2023-03-24T03:10:14.305Z,100.00
2023-03-24T03:12:43.039Z,100.00
2023-03-24T03:15:13.803Z,100.00
2023-03-24T03:17:44.510Z,100.00
2023-03-24T03:20:16.391Z,100.00
2023-03-24T03:22:49.818Z,100.00
2023-03-24T03:25:22.833Z,100.00
2023-03-24T03:27:53.095Z,100.00
2023-03-24T03:30:24.855Z,100.00
2023-03-24T03:32:57.312Z,100.00
2023-03-24T03:35:28.051Z,100.00
2023-03-24T03:38:01.059Z,100.00
2023-03-24T03:40:34.130Z,100.00
2023-03-24T03:43:02.202Z,100.00
2023-03-24T03:45:30.135Z,100.00
2023-03-24T03:47:58.154Z,100.00
2023-03-24T03:50:26.626Z,100.00
2023-03-24T03:52:54.998Z,100.00
2023-03-24T03:55:23.320Z,100.00
2023-03-24T03:57:52.831Z,100.00
2023-03-24T04:00:24.769Z,100.00
2023-03-24T04:03:08.666Z,100.00
2023-03-24T04:05:37.732Z,100.00
2023-03-24T04:08:15.241Z,100.00
2023-03-24T04:10:55.985Z,100.00
2023-03-24T04:13:28.625Z,100.00
2023-03-24T04:15:59.093Z,100.00
2023-03-24T04:18:37.248Z,100.00
2023-03-24T04:21:16.255Z,100.00
2023-03-24T04:23:50.019Z,100.00
2023-03-24T04:26:26.319Z,100.00
2023-03-24T04:29:06.163Z,100.00
2023-03-24T04:31:37.411Z,100.00
2023-03-24T04:34:10.247Z,100.00
2023-03-24T04:36:43.383Z,100.00
2023-03-24T04:39:13.957Z,100.00
2023-03-24T04:41:43.074Z,100.00
2023-03-24T04:44:13.247Z,100.00
2023-03-24T04:46:41.124Z,100.00
2023-03-24T04:49:10.432Z,100.00
2023-03-24T04:51:38.424Z,100.00
2023-03-24T04:54:06.448Z,100.00
2023-03-24T04:56:41.479Z,100.00
2023-03-24T04:59:09.396Z,100.00
2023-03-24T05:01:39.241Z,100.00
2023-03-24T05:04:08.461Z,100.00
2023-03-24T05:06:36.392Z,100.00
2023-03-24T05:09:05.480Z,100.00
2023-03-24T05:11:33.377Z,100.00
2023-03-24T05:14:01.559Z,100.00
2023-03-24T05:16:29.481Z,100.00
2023-03-24T05:18:58.872Z,100.00
2023-03-24T05:21:27.081Z,100.00
2023-03-24T05:23:55.483Z,100.00
2023-03-24T05:26:23.355Z,100.00
2023-03-24T05:28:51.222Z,100.00
2023-03-24T05:31:19.188Z,100.00
2023-03-24T05:33:47.154Z,100.00
2023-03-24T05:36:16.593Z,100.00
2023-03-24T05:38:44.682Z,100.00
2023-03-24T05:41:12.773Z,100.00
2023-03-24T05:43:40.652Z,100.00
2023-03-24T05:46:09.093Z,100.00
2023-03-24T05:48:37.076Z,100.00
2023-03-24T05:51:05.122Z,100.00
2023-03-24T05:53:34.414Z,100.00
2023-03-24T05:56:03.117Z,100.00
2023-03-24T05:58:31.013Z,100.00
2023-03-24T06:00:59.936Z,100.00
2023-03-24T06:03:34.208Z,100.00
2023-03-24T06:06:02.400Z,100.00
2023-03-24T06:08:34.006Z,100.00
2023-03-24T06:11:04.137Z,100.00
2023-03-24T06:13:32.636Z,100.00
2023-03-24T06:16:03.538Z,100.00
2023-03-24T06:18:32.095Z,100.00
2023-03-24T06:21:00.298Z,100.00
2023-03-24T06:23:29.640Z,100.00
2023-03-24T06:25:59.089Z,100.00
2023-03-24T06:28:30.527Z,100.00
2023-03-24T06:30:59.296Z,100.00
2023-03-24T06:33:27.380Z,100.00
2023-03-24T06:35:55.381Z,100.00
2023-03-24T06:38:23.401Z,100.00
2023-03-24T06:40:51.457Z,100.00
2023-03-24T06:43:19.364Z,100.00
2023-03-24T06:45:48.928Z,100.00
2023-03-24T06:48:17.030Z,100.00
2023-03-24T06:50:45.113Z,100.00
2023-03-24T06:53:13.252Z,100.00
2023-03-24T06:55:41.157Z,100.00
2023-03-24T06:58:09.060Z,100.00
2023-03-24T07:00:38.065Z,100.00
2023-03-24T07:03:08.077Z,100.00
2023-03-24T07:05:39.462Z,100.00
2023-03-24T07:08:34.018Z,100.00
2023-03-24T07:10:56.060Z,100.00
2023-03-24T07:13:24.056Z,100.00
2023-03-24T07:15:52.058Z,100.00
2023-03-24T07:18:21.621Z,100.00
2023-03-24T07:20:49.627Z,100.00
2023-03-24T07:23:17.542Z,100.00
2023-03-24T07:25:45.857Z,100.00
2023-03-24T07:28:13.833Z,100.00
2023-03-24T07:30:41.818Z,100.00
2023-03-24T07:33:12.054Z,100.00
2023-03-24T07:35:41.791Z,100.00
2023-03-24T07:38:10.277Z,100.00
2023-03-24T07:40:38.233Z,100.00
2023-03-24T07:43:06.849Z,100.00
2023-03-24T07:45:35.032Z,100.00
2023-03-24T07:48:03.252Z,100.00
2023-03-24T07:50:31.962Z,100.00
2023-03-24T07:53:01.553Z,100.00
2023-03-24T07:55:29.478Z,100.00
2023-03-24T07:57:57.459Z,100.00
2023-03-24T08:00:25.501Z,100.00
2023-03-24T08:02:54.454Z,100.00
2023-03-24T08:05:24.965Z,100.00
2023-03-24T08:07:54.422Z,100.00
2023-03-24T08:10:25.323Z,100.00
2023-03-24T08:12:53.313Z,100.00
2023-03-24T08:15:21.472Z,100.00
2023-03-24T08:17:49.704Z,100.00
2023-03-24T08:20:19.519Z,100.00
2023-03-24T08:22:50.110Z,100.00
2023-03-24T08:25:19.685Z,100.00
2023-03-24T08:27:49.525Z,100.00
2023-03-24T08:30:19.261Z,100.00
2023-03-24T08:32:48.744Z,100.00
2023-03-24T08:35:19.145Z,100.00
2023-03-24T08:37:47.170Z,100.00
2023-03-24T08:40:19.320Z,100.00
2023-03-24T08:42:51.105Z,100.00
2023-03-24T08:45:21.206Z,100.00
2023-03-24T08:47:50.566Z,100.00
2023-03-24T08:50:19.637Z,100.00
2023-03-24T08:52:48.185Z,100.00
2023-03-24T08:55:16.555Z,100.00
2023-03-24T08:57:44.661Z,100.00
2023-03-24T09:00:15.833Z,100.00
2023-03-24T09:02:45.137Z,100.00
2023-03-24T09:05:13.844Z,100.00
2023-03-24T09:07:41.902Z,100.00
2023-03-24T09:10:11.635Z,100.00
2023-03-24T09:12:40.456Z,100.00
2023-03-24T09:15:11.765Z,100.00
2023-03-24T09:17:42.950Z,100.00
2023-03-24T09:20:13.564Z,100.00
2023-03-24T09:22:43.839Z,100.00
2023-03-24T09:25:13.724Z,100.00
2023-03-24T09:27:41.627Z,100.00
2023-03-24T09:30:10.703Z,100.00
2023-03-24T09:32:38.797Z,100.00
2023-03-24T09:35:09.258Z,100.00
2023-03-24T09:37:38.540Z,100.00
2023-03-24T09:40:08.026Z,100.00
2023-03-24T09:42:38.944Z,100.00
2023-03-24T09:45:13.913Z,100.00
2023-03-24T09:47:43.642Z,100.00
2023-03-24T09:50:22.843Z,100.00
2023-03-24T09:52:54.727Z,100.00
2023-03-24T09:55:25.291Z,100.00
2023-03-24T09:57:54.476Z,100.00
2023-03-24T10:00:24.532Z,100.00
2023-03-24T10:02:56.133Z,100.00
2023-03-24T10:05:32.097Z,100.00
2023-03-24T10:08:01.757Z,100.00
2023-03-24T10:10:36.586Z,100.00
2023-03-24T10:13:08.069Z,100.00
2023-03-24T10:15:41.294Z,100.00
2023-03-24T10:18:25.396Z,100.00
2023-03-24T10:20:56.446Z,100.00
2023-03-24T10:23:29.109Z,100.00
2023-03-24T10:26:02.029Z,100.00
2023-03-24T10:28:34.755Z,100.00
2023-03-24T10:31:06.683Z,100.00
2023-03-24T10:33:35.021Z,100.00
2023-03-24T10:36:08.500Z,100.00
2023-03-24T10:38:36.729Z,100.00
2023-03-24T10:41:06.101Z,100.00
2023-03-24T10:43:34.498Z,100.00
2023-03-24T10:46:03.246Z,100.00
2023-03-24T10:48:44.408Z,100.00
2023-03-24T10:51:21.371Z,100.00
2023-03-24T10:53:50.675Z,100.00
2023-03-24T10:56:20.033Z,100.00
2023-03-24T10:58:49.045Z,100.00
2023-03-24T11:01:27.311Z,100.00
2023-03-24T11:04:00.710Z,100.00
2023-03-24T11:06:30.087Z,100.00
2023-03-24T11:09:11.581Z,100.00
2023-03-24T11:11:39.516Z,100.00
2023-03-24T11:14:20.603Z,100.00
2023-03-24T11:16:48.747Z,100.00
2023-03-24T11:19:21.830Z,100.00
2023-03-24T11:21:53.778Z,100.00
2023-03-24T11:24:22.086Z,100.00
2023-03-24T11:26:56.816Z,100.00
2023-03-24T11:29:28.057Z,100.00
2023-03-24T11:31:58.510Z,100.00
2023-03-24T11:34:34.492Z,100.00
2023-03-24T11:37:05.501Z,100.00
2023-03-24T11:39:35.403Z,100.00
2023-03-24T11:42:15.684Z,100.00
2023-03-24T11:44:47.113Z,100.00
2023-03-24T11:47:19.713Z,100.00
2023-03-24T11:49:52.510Z,100.00
2023-03-24T11:52:25.825Z,100.00
2023-03-24T11:54:54.136Z,100.00
2023-03-24T11:57:33.739Z,100.00
2023-03-24T12:00:08.974Z,100.00
2023-03-24T12:02:48.353Z,100.00
2023-03-24T12:05:25.546Z,100.00
2023-03-24T12:08:16.577Z,100.00
2023-03-24T12:10:54.720Z,100.00
2023-03-24T12:16:04.835Z,100.00
2023-03-24T12:18:39.971Z,100.00
2023-03-24T12:21:14.270Z,100.00
2023-03-24T12:23:53.131Z,100.00
2023-03-24T12:26:23.064Z,100.00
2023-03-24T12:28:59.964Z,100.00
2023-03-24T12:31:53.940Z,100.00
2023-03-24T12:34:42.620Z,100.00
2023-03-24T12:37:16.568Z,100.00
2023-03-24T12:39:50.573Z,100.00
2023-03-24T12:42:20.626Z,100.00
2023-03-24T12:45:05.586Z,100.00
2023-03-24T12:48:06.100Z,100.00
2023-03-24T12:50:42.227Z,100.00
2023-03-24T12:53:41.852Z,100.00
2023-03-24T12:56:15.534Z,100.00
2023-03-24T12:58:46.042Z,100.00
2023-03-24T13:01:21.050Z,100.00
2023-03-24T13:03:51.501Z,100.00
2023-03-24T13:06:22.772Z,100.00
2023-03-24T13:09:00.656Z,100.00
2023-03-24T13:11:35.321Z,100.00
2023-03-24T13:14:05.074Z,100.00
2023-03-24T13:16:35.940Z,100.00
2023-03-24T13:19:04.130Z,100.00
2023-03-24T13:21:35.424Z,100.00
2023-03-24T13:24:08.753Z,100.00
2023-03-24T13:26:41.139Z,100.00
2023-03-24T13:29:16.309Z,100.00
2023-03-24T13:31:46.887Z,100.00
2023-03-24T13:34:24.190Z,100.00
2023-03-24T13:36:55.832Z,100.00
2023-03-24T13:39:25.438Z,100.00
2023-03-24T13:41:56.811Z,100.00
2023-03-24T13:44:26.542Z,100.00
2023-03-24T13:47:15.530Z,100.00
2023-03-24T13:49:45.985Z,100.00
2023-03-24T13:52:28.348Z,100.00
2023-03-24T13:54:59.101Z,100.00
2023-03-24T13:57:29.272Z,100.00
2023-03-24T14:00:08.990Z,100.00
2023-03-24T14:02:47.766Z,100.00
2023-03-24T14:05:56.500Z,100.00
2023-03-24T14:08:41.465Z,100.00
2023-03-24T14:11:26.868Z,100.00
2023-03-24T14:13:56.178Z,100.00
2023-03-24T14:16:36.065Z,100.00
2023-03-24T14:19:27.273Z,100.00
2023-03-24T14:22:00.472Z,100.00
2023-03-24T14:24:30.753Z,100.00
2023-03-24T14:26:58.692Z,100.00
2023-03-24T14:29:41.751Z,100.00
2023-03-24T14:32:20.307Z,100.00
2023-03-24T14:34:54.256Z,100.00
2023-03-24T14:37:23.098Z,100.00
2023-03-24T14:39:51.678Z,92.27
2023-03-24T14:42:56.890Z,100.00
2023-03-24T14:45:54.238Z,100.00
2023-03-24T14:48:30.645Z,91.36
2023-03-24T14:51:02.793Z,87.29
2023-03-24T14:53:30.817Z,86.92
2023-03-24T14:55:59.277Z,86.69
2023-03-24T14:58:32.984Z,93.60
2023-03-24T15:01:07.597Z,88.19
2023-03-24T15:03:39.146Z,83.07
2023-03-24T15:06:17.662Z,88.44
2023-03-24T15:08:47.071Z,81.93
2023-03-24T15:11:17.132Z,90.22
2023-03-24T15:13:46.087Z,100.00
2023-03-24T15:16:24.154Z,97.18
2023-03-24T15:19:01.489Z,100.00
2023-03-24T15:21:34.244Z,100.00
2023-03-24T15:24:03.100Z,100.00
2023-03-24T15:26:32.785Z,100.00
2023-03-24T15:29:02.218Z,100.00
2023-03-24T15:31:33.940Z,97.29
2023-03-24T15:34:23.792Z,100.00
2023-03-24T15:36:54.960Z,100.00
2023-03-24T15:39:27.010Z,98.95
2023-03-24T15:41:55.323Z,86.18
2023-03-24T15:44:26.925Z,100.00
2023-03-24T15:46:57.822Z,100.00
2023-03-24T15:49:27.775Z,100.00
2023-03-24T15:51:59.476Z,100.00
2023-03-24T15:54:29.501Z,100.00
2023-03-24T15:57:02.241Z,100.00
2023-03-24T15:59:36.575Z,100.00
2023-03-24T16:02:12.499Z,100.00
2023-03-24T16:04:41.955Z,100.00
2023-03-24T16:07:29.671Z,100.00
2023-03-24T16:09:59.294Z,100.00
2023-03-24T16:12:27.259Z,100.00
2023-03-24T16:14:55.274Z,100.00
2023-03-24T16:17:24.593Z,100.00
2023-03-24T16:19:52.587Z,100.00
2023-03-24T16:22:20.552Z,100.00
2023-03-24T16:24:48.536Z,100.00
2023-03-24T16:27:16.632Z,100.00
2023-03-24T16:29:44.733Z,100.00
2023-03-24T16:32:12.630Z,100.00
2023-03-24T16:34:42.248Z,100.00
2023-03-24T16:37:10.856Z,100.00
2023-03-24T16:39:38.845Z,100.00
2023-03-24T16:42:07.125Z,100.00
2023-03-24T16:44:35.593Z,100.00
2023-03-24T16:47:03.513Z,100.00
2023-03-24T16:49:31.461Z,100.00
2023-03-24T16:52:00.967Z,100.00
2023-03-24T16:54:28.986Z,100.00
2023-03-24T16:56:57.053Z,100.00
2023-03-24T16:59:27.084Z,100.00
2023-03-24T17:01:56.216Z,100.00
2023-03-24T17:04:26.260Z,100.00
2023-03-24T17:06:54.757Z,100.00
2023-03-24T17:09:24.548Z,100.00
2023-03-24T17:11:54.280Z,100.00
2023-03-24T17:14:22.707Z,100.00
2023-03-24T17:16:52.920Z,100.00
2023-03-24T17:19:22.707Z,100.00
2023-03-24T17:21:52.843Z,100.00
2023-03-24T17:24:21.064Z,100.00
2023-03-24T17:26:50.430Z,100.00
2023-03-24T17:29:18.478Z,100.00
2023-03-24T17:31:46.424Z,100.00
2023-03-24T17:36:46.389Z,100.00
2023-03-24T17:39:16.766Z,100.00
2023-03-24T17:41:44.874Z,100.00
2023-03-24T17:44:14.463Z,100.00
2023-03-24T17:46:42.545Z,100.00
2023-03-24T17:49:10.695Z,100.00
2023-03-24T17:51:38.583Z,100.00
2023-03-24T17:54:06.764Z,100.00
2023-03-24T17:56:34.682Z,100.00
2023-03-24T17:59:03.465Z,100.00
2023-03-24T18:01:35.438Z,100.00
2023-03-24T18:04:03.705Z,100.00
2023-03-24T18:06:31.945Z,100.00
2023-03-24T18:08:59.850Z,100.00
2023-03-24T18:11:27.951Z,100.00
2023-03-24T18:13:55.903Z,100.00
2023-03-24T18:16:25.326Z,100.00
2023-03-24T18:18:54.662Z,100.00
2023-03-24T18:21:22.723Z,100.00
2023-03-24T18:23:51.192Z,100.00
2023-03-24T18:26:19.107Z,100.00
2023-03-24T18:28:47.312Z,100.00
2023-03-24T18:31:18.861Z,100.00
2023-03-24T18:33:47.287Z,100.00
2023-03-24T18:36:21.156Z,100.00
2023-03-24T18:38:49.435Z,100.00
2023-03-24T18:41:18.739Z,100.00
2023-03-24T18:43:48.149Z,100.00
2023-03-24T18:46:17.192Z,100.00
2023-03-24T18:48:46.628Z,100.00
2023-03-24T18:51:16.452Z,100.00
2023-03-24T18:53:44.357Z,100.00
2023-03-24T18:56:12.427Z,100.00
2023-03-24T18:58:40.758Z,100.00
2023-03-24T19:01:11.058Z,100.00
2023-03-24T19:03:40.964Z,100.00
2023-03-24T19:06:09.792Z,100.00
2023-03-24T19:08:41.424Z,100.00
2023-03-24T19:11:09.943Z,100.00
2023-03-24T19:13:38.357Z,100.00
2023-03-24T19:16:09.117Z,100.00
2023-03-24T19:18:37.691Z,100.00
2023-03-24T19:21:07.082Z,100.00
2023-03-24T19:23:35.317Z,100.00
2023-03-24T19:26:04.940Z,100.00
2023-03-24T19:28:36.215Z,100.00
2023-03-24T19:31:09.194Z,100.00
2023-03-24T19:33:37.888Z,100.00
2023-03-24T19:36:07.567Z,100.00
2023-03-24T19:38:36.477Z,100.00
2023-03-24T19:41:07.921Z,100.00
2023-03-24T19:43:36.849Z,100.00
2023-03-24T19:46:06.165Z,100.00
2023-03-24T19:48:34.701Z,100.00
2023-03-24T19:51:02.950Z,100.00
2023-03-24T19:53:31.169Z,100.00
2023-03-24T19:55:59.811Z,100.00
2023-03-24T19:58:29.130Z,100.00
2023-03-24T20:00:57.716Z,100.00
2023-03-24T20:03:28.924Z,100.00
2023-03-24T20:05:57.086Z,100.00
2023-03-24T20:08:26.158Z,100.00
2023-03-24T20:10:54.175Z,100.00
2023-03-24T20:13:24.082Z,100.00
2023-03-24T20:15:53.761Z,100.00
2023-03-24T20:18:21.955Z,100.00
2023-03-24T20:20:49.923Z,100.00
2023-03-24T20:23:18.061Z,100.00
2023-03-24T20:25:45.999Z,100.00
2023-03-24T20:28:14.059Z,100.00
2023-03-24T20:30:45.069Z,100.00
2023-03-24T20:33:14.504Z,100.00
2023-03-24T20:35:42.720Z,100.00
2023-03-24T20:38:10.608Z,100.00
2023-03-24T20:40:38.555Z,100.00
2023-03-24T20:43:06.498Z,100.00
2023-03-24T20:45:34.502Z,100.00
2023-03-24T20:48:02.547Z,100.00
2023-03-24T20:50:31.822Z,100.00
2023-03-24T20:52:59.742Z,100.00
2023-03-24T20:55:27.928Z,100.00
2023-03-24T20:57:55.934Z,100.00
2023-03-24T21:00:24.247Z,100.00
2023-03-24T21:02:52.461Z,100.00
2023-03-24T21:05:20.668Z,100.00
2023-03-24T21:07:50.103Z,100.00
2023-03-24T21:10:18.184Z,100.00
2023-03-24T21:12:53.485Z,100.00
2023-03-24T21:15:22.230Z,100.00
2023-03-24T21:17:50.241Z,100.00
2023-03-24T21:20:19.041Z,100.00
2023-03-24T21:22:53.663Z,100.00
2023-03-24T21:25:22.555Z,100.00
2023-03-24T21:27:50.597Z,100.00
2023-03-24T21:30:19.394Z,100.00
2023-03-24T21:32:47.741Z,100.00
2023-03-24T21:35:16.472Z,100.00
2023-03-24T21:37:45.655Z,100.00
2023-03-24T21:40:18.165Z,100.00
2023-03-24T21:42:46.809Z,100.00
2023-03-24T21:45:16.374Z,100.00
2023-03-24T21:47:46.120Z,100.00
2023-03-24T21:50:19.151Z,100.00
2023-03-24T21:52:47.951Z,100.00
2023-03-24T21:55:17.596Z,100.00
2023-03-24T21:57:46.761Z,100.00
2023-03-24T22:00:16.761Z,100.00
2023-03-24T22:02:46.374Z,100.00
2023-03-24T22:05:14.576Z,100.00
2023-03-24T22:07:42.838Z,100.00
2023-03-24T22:10:13.473Z,100.00
2023-03-24T22:12:43.142Z,100.00
2023-03-24T22:15:12.757Z,100.00
2023-03-24T22:17:41.011Z,100.00
2023-03-24T22:20:10.180Z,100.00
2023-03-24T22:22:38.572Z,100.00
2023-03-24T22:25:08.216Z,100.00
2023-03-24T22:27:36.806Z,100.00
2023-03-24T22:30:07.586Z,100.00
2023-03-24T22:32:35.755Z,100.00
2023-03-24T22:35:03.924Z,100.00
2023-03-24T22:37:32.363Z,100.00
2023-03-24T22:40:00.334Z,100.00
2023-03-24T22:42:28.275Z,100.00
2023-03-24T22:44:56.365Z,100.00
2023-03-24T22:47:25.728Z,100.00
2023-03-24T22:49:53.652Z,100.00
2023-03-24T22:52:21.603Z,100.00
2023-03-24T22:54:49.489Z,100.00
2023-03-24T22:57:18.778Z,100.00
2023-03-24T22:59:46.768Z,100.00
2023-03-24T23:02:14.761Z,100.00
2023-03-24T23:04:45.013Z,100.00
2023-03-24T23:07:12.974Z,100.00
2023-03-24T23:09:43.096Z,100.00
2023-03-24T23:12:11.370Z,100.00
2023-03-24T23:14:39.283Z,100.00
2023-03-24T23:17:09.496Z,100.00
2023-03-24T23:19:37.753Z,100.00
2023-03-24T23:22:08.387Z,100.00
2023-03-24T23:24:39.338Z,100.00
2023-03-24T23:27:07.834Z,100.00
2023-03-24T23:29:35.749Z,100.00
2023-03-24T23:32:03.719Z,100.00
2023-03-24T23:34:31.650Z,100.00
2023-03-24T23:37:03.569Z,100.00
2023-03-24T23:39:34.052Z,100.00
2023-03-24T23:42:01.963Z,100.00
2023-03-24T23:44:29.884Z,100.00
2023-03-24T23:46:57.806Z,100.00
2023-03-24T23:49:25.952Z,100.00
2023-03-24T23:51:53.862Z,100.00
2023-03-24T23:54:21.779Z,100.00
2023-03-24T23:56:51.338Z,100.00
2023-03-24T23:59:19.306Z,100.00
